createdAt,value
2022-08-19T00:02:23.108Z,49.98
2022-08-19T00:05:26.015Z,50.17
2022-08-19T00:08:28.766Z,50.63
2022-08-19T00:11:31.933Z,50.65
2022-08-19T00:14:34.443Z,51.20
2022-08-19T00:17:37.275Z,51.40
2022-08-19T00:20:45.137Z,51.76
2022-08-19T00:23:47.999Z,52.66
2022-08-19T00:26:51.378Z,52.91
2022-08-19T00:29:54.235Z,53.53
2022-08-19T00:32:57.607Z,53.94
2022-08-19T00:36:01.802Z,54.58
2022-08-19T00:39:04.842Z,54.29
2022-08-19T00:42:07.715Z,54.65
2022-08-19T00:45:14.131Z,55.18
2022-08-19T00:48:18.178Z,55.39
2022-08-19T00:51:20.727Z,55.20
2022-08-19T00:54:28.239Z,55.78
2022-08-19T00:57:36.767Z,56.34
2022-08-19T01:00:39.956Z,56.84
2022-08-19T01:03:56.883Z,56.54
2022-08-19T01:07:02.512Z,56.57
2022-08-19T01:10:09.670Z,56.18
2022-08-19T01:13:15.737Z,55.97
2022-08-19T01:16:20.776Z,56.18
2022-08-19T01:19:43.981Z,56.91
2022-08-19T01:22:50.549Z,57.03
2022-08-19T01:25:55.389Z,57.35
2022-08-19T01:29:01.056Z,57.52
2022-08-19T01:32:04.573Z,57.77
2022-08-19T01:35:07.363Z,57.85
2022-08-19T01:38:24.913Z,57.89
2022-08-19T01:41:27.590Z,57.31
2022-08-19T01:44:30.399Z,57.99
2022-08-19T01:47:33.240Z,58.21
2022-08-19T01:50:36.169Z,58.07
2022-08-19T01:53:39.799Z,58.34
2022-08-19T01:56:42.767Z,57.63
2022-08-19T01:59:46.019Z,57.36
2022-08-19T02:02:49.016Z,57.31
2022-08-19T02:06:00.750Z,57.35
2022-08-19T02:09:04.369Z,57.83
2022-08-19T02:12:08.927Z,57.30
2022-08-19T02:15:12.065Z,57.27
2022-08-19T02:18:15.114Z,56.77
2022-08-19T02:21:19.314Z,56.82
2022-08-19T02:24:22.111Z,56.78
2022-08-19T02:27:24.702Z,57.01
2022-08-19T02:30:27.670Z,57.11
2022-08-19T02:33:30.708Z,56.72
2022-08-19T02:36:33.590Z,56.45
2022-08-19T02:39:36.195Z,56.32
2022-08-19T02:42:39.107Z,55.96
2022-08-19T02:45:41.997Z,55.99
2022-08-19T02:48:45.115Z,55.82
2022-08-19T02:51:47.920Z,56.15
2022-08-19T02:54:50.803Z,56.67
2022-08-19T02:57:53.342Z,56.46
2022-08-19T03:00:57.400Z,56.46
2022-08-19T03:04:03.205Z,57.35
2022-08-19T03:07:10.573Z,57.83
2022-08-19T03:10:13.804Z,58.01
2022-08-19T03:13:18.720Z,58.48
2022-08-19T03:16:23.470Z,58.92
2022-08-19T03:19:26.350Z,59.20
2022-08-19T03:22:29.741Z,58.81
2022-08-19T03:25:39.962Z,58.77
2022-08-19T03:28:47.710Z,59.40
2022-08-19T03:32:05.137Z,59.51
2022-08-19T03:35:07.947Z,59.05
2022-08-19T03:38:10.757Z,59.03
2022-08-19T03:41:16.944Z,59.31
2022-08-19T03:44:22.681Z,59.35
2022-08-19T03:47:25.280Z,59.37
2022-08-19T03:50:28.309Z,59.48
2022-08-19T03:53:32.881Z,59.64
2022-08-19T03:56:38.387Z,59.39
2022-08-19T03:59:40.943Z,59.89
2022-08-19T04:02:58.756Z,60.05
2022-08-19T04:06:18.851Z,59.56
2022-08-19T04:09:21.447Z,58.78
2022-08-19T04:12:24.280Z,58.39
2022-08-19T04:15:26.942Z,58.46
2022-08-19T04:18:35.930Z,58.10
2022-08-19T04:21:39.024Z,58.03
2022-08-19T04:24:41.862Z,57.66
2022-08-19T04:27:47.515Z,57.72
2022-08-19T04:30:53.690Z,56.97
2022-08-19T04:34:01.603Z,57.23
2022-08-19T04:37:13.736Z,57.35
2022-08-19T04:40:34.945Z,56.84
2022-08-19T04:43:39.122Z,57.01
2022-08-19T04:46:51.330Z,56.69
2022-08-19T04:49:54.844Z,55.95
2022-08-19T04:52:57.668Z,55.63
2022-08-19T04:56:06.041Z,55.20
2022-08-19T04:59:09.638Z,54.99
2022-08-19T05:02:12.526Z,55.12
2022-08-19T05:05:15.106Z,55.07
2022-08-19T05:08:31.384Z,55.06
2022-08-19T05:11:40.133Z,54.30
2022-08-19T05:14:42.973Z,54.40
2022-08-19T05:18:05.461Z,54.49
2022-08-19T05:21:29.384Z,54.34
2022-08-19T05:24:33.522Z,54.06
2022-08-19T05:27:36.503Z,54.04
2022-08-19T05:30:47.283Z,53.82
2022-08-19T05:33:51.043Z,53.63
2022-08-19T05:36:57.910Z,53.28
2022-08-19T05:40:00.849Z,53.03
2022-08-19T05:43:05.429Z,52.68
2022-08-19T05:46:09.670Z,52.77
2022-08-19T05:49:12.204Z,52.46
2022-08-19T05:52:19.336Z,51.92
2022-08-19T05:55:23.633Z,51.95
2022-08-19T05:58:28.118Z,51.60
2022-08-19T06:01:30.816Z,51.86
2022-08-19T06:04:34.058Z,51.62
2022-08-19T06:07:37.606Z,51.30
2022-08-19T06:10:40.487Z,51.58
2022-08-19T06:13:44.017Z,51.29
2022-08-19T06:16:46.931Z,50.49
2022-08-19T06:19:51.020Z,50.21
2022-08-19T06:22:54.840Z,50.10
2022-08-19T06:25:57.478Z,49.31
2022-08-19T06:29:00.349Z,49.53
2022-08-19T06:32:04.226Z,49.36
2022-08-19T06:35:07.634Z,48.93
2022-08-19T06:38:10.567Z,49.23
2022-08-19T06:41:13.435Z,48.50
2022-08-19T06:44:16.494Z,48.00
2022-08-19T06:47:23.861Z,47.49
2022-08-19T06:50:31.177Z,47.37
2022-08-19T06:53:34.469Z,47.43
2022-08-19T06:56:37.393Z,46.72
2022-08-19T06:59:40.747Z,47.28
2022-08-19T07:02:48.211Z,45.96
2022-08-19T07:06:04.208Z,45.46
2022-08-19T07:09:11.491Z,45.48
2022-08-19T07:12:16.438Z,44.99
2022-08-19T07:15:19.207Z,44.70
2022-08-19T07:18:22.551Z,44.10
2022-08-19T07:21:29.489Z,44.06
2022-08-19T07:24:33.540Z,43.49
2022-08-19T07:27:36.366Z,43.20
2022-08-19T07:30:39.435Z,42.62
2022-08-19T07:33:44.243Z,43.10
2022-08-19T07:36:47.245Z,42.65
2022-08-19T07:39:50.022Z,41.74
2022-08-19T07:42:52.884Z,42.16
2022-08-19T07:45:57.796Z,41.61
2022-08-19T07:49:01.490Z,41.03
2022-08-19T07:52:07.413Z,40.23
2022-08-19T07:55:39.790Z,40.43
2022-08-19T07:58:37.528Z,39.53
2022-08-19T08:01:41.468Z,39.74
2022-08-19T08:05:03.145Z,39.03
2022-08-19T08:08:23.871Z,39.41
2022-08-19T08:11:30.617Z,38.18
2022-08-19T08:14:36.046Z,37.29
2022-08-19T08:17:49.214Z,37.00
2022-08-19T08:20:54.097Z,36.96
2022-08-19T08:23:57.046Z,37.73
2022-08-19T08:27:01.002Z,35.96
2022-08-19T08:30:07.569Z,35.17
2022-08-19T08:33:11.116Z,34.82
2022-08-19T08:36:14.827Z,33.74
2022-08-19T08:39:20.196Z,33.92
2022-08-19T08:42:29.979Z,34.48
2022-08-19T08:45:41.037Z,32.81
2022-08-19T08:48:54.605Z,33.09
2022-08-19T08:52:05.311Z,32.23
2022-08-19T08:55:12.100Z,32.35
2022-08-19T08:58:19.273Z,31.65
2022-08-19T09:01:22.082Z,31.74
2022-08-19T09:04:24.669Z,32.35
2022-08-19T09:07:35.003Z,31.63
2022-08-19T09:11:06.755Z,32.79
2022-08-19T09:14:51.149Z,31.31
2022-08-19T09:18:02.674Z,30.97
2022-08-19T09:21:05.590Z,31.27
2022-08-19T09:24:08.157Z,30.84
2022-08-19T09:27:18.683Z,29.97
2022-08-19T09:30:25.771Z,29.75
2022-08-19T09:33:28.569Z,29.00
2022-08-19T09:36:39.831Z,29.03
2022-08-19T09:39:43.658Z,28.84
2022-08-19T09:42:49.595Z,29.44
2022-08-19T09:45:53.778Z,28.80
2022-08-19T09:48:59.466Z,28.37
2022-08-19T09:52:11.367Z,28.21
2022-08-19T09:55:17.363Z,28.14
2022-08-19T09:58:26.032Z,28.50
2022-08-19T10:01:31.984Z,28.63
2022-08-19T10:04:53.427Z,29.21
2022-08-19T10:07:56.839Z,28.45
2022-08-19T10:11:28.307Z,27.98
2022-08-19T10:14:24.666Z,27.99
2022-08-19T10:17:31.706Z,28.08
2022-08-19T10:20:38.861Z,27.88
2022-08-19T10:23:46.917Z,27.89
2022-08-19T10:26:58.760Z,28.28
2022-08-19T10:30:02.813Z,28.13
2022-08-19T10:33:10.830Z,27.34
2022-08-19T10:36:23.566Z,27.70
2022-08-19T10:39:28.641Z,27.22
2022-08-19T10:42:33.825Z,28.37
2022-08-19T10:45:37.391Z,28.90
2022-08-19T10:48:55.679Z,26.87
2022-08-19T10:52:18.657Z,26.72
2022-08-19T10:55:42.810Z,26.08
2022-08-19T10:58:45.619Z,26.53
2022-08-19T11:01:49.280Z,26.45
2022-08-19T11:04:56.036Z,25.95
2022-08-19T11:07:58.895Z,25.72
2022-08-19T11:11:07.578Z,25.89
2022-08-19T11:14:15.875Z,25.58
2022-08-19T11:17:18.426Z,25.75
2022-08-19T11:20:21.314Z,26.28
2022-08-19T11:23:23.864Z,25.98
2022-08-19T11:26:28.022Z,25.62
2022-08-19T11:29:31.820Z,24.81
2022-08-19T11:32:35.418Z,24.73
2022-08-19T15:30:36.797Z,34.93
2022-08-19T15:33:43.966Z,34.45
2022-08-19T15:36:46.700Z,34.88
2022-08-19T15:39:50.305Z,35.29
2022-08-19T15:42:54.070Z,35.61
2022-08-19T15:45:56.873Z,35.55
2022-08-19T15:49:00.433Z,35.07
2022-08-19T15:52:04.480Z,35.28
2022-08-19T15:55:07.619Z,34.62
2022-08-19T15:58:32.806Z,34.80
2022-08-19T16:01:54.002Z,35.22
2022-08-19T16:05:16.499Z,34.87
2022-08-19T16:08:19.187Z,34.85
2022-08-19T16:11:29.253Z,34.23
2022-08-19T16:14:35.272Z,33.63
2022-08-19T16:17:38.153Z,33.46
2022-08-19T16:20:41.023Z,32.83
2022-08-19T16:23:48.435Z,32.96
2022-08-19T16:26:51.170Z,32.92
2022-08-19T16:29:54.652Z,32.44
2022-08-19T16:32:57.227Z,32.44
2022-08-19T16:36:07.217Z,32.72
2022-08-19T16:39:12.735Z,32.89
2022-08-19T16:42:15.719Z,33.23
2022-08-19T16:45:19.540Z,32.96
2022-08-19T16:48:24.894Z,32.67
2022-08-19T16:51:27.820Z,33.17
2022-08-19T16:54:32.560Z,32.77
2022-08-19T16:57:35.357Z,32.91
2022-08-19T17:00:38.259Z,33.39
2022-08-19T17:03:41.234Z,33.58
2022-08-19T17:06:44.047Z,33.46
2022-08-19T17:09:46.649Z,33.26
2022-08-19T17:12:54.844Z,33.52
2022-08-19T17:15:58.755Z,33.48
2022-08-19T17:19:04.986Z,33.45
2022-08-19T17:22:08.419Z,34.12
2022-08-19T17:25:14.228Z,34.42
2022-08-19T17:28:20.363Z,34.96
2022-08-19T17:31:25.243Z,35.15
2022-08-19T17:34:28.186Z,35.44
2022-08-19T17:37:31.255Z,36.23
2022-08-19T17:40:35.047Z,36.08
2022-08-19T17:43:43.310Z,36.46
2022-08-19T17:46:46.843Z,36.53
2022-08-19T17:49:49.812Z,36.79
2022-08-19T17:52:52.388Z,36.99
2022-08-19T17:55:55.249Z,37.08
2022-08-19T17:59:00.295Z,36.89
2022-08-19T18:02:10.095Z,37.07
2022-08-19T18:05:13.613Z,36.95
2022-08-19T18:08:17.465Z,36.89
2022-08-19T18:11:20.587Z,36.93
2022-08-19T18:14:33.028Z,37.27
2022-08-19T18:17:37.428Z,36.91
2022-08-19T18:20:40.132Z,37.02
2022-08-19T18:23:45.854Z,36.98
2022-08-19T18:26:49.308Z,37.27
2022-08-19T18:29:52.291Z,37.37
2022-08-19T18:32:54.924Z,37.18
2022-08-19T18:35:57.770Z,37.54
2022-08-19T18:39:18.838Z,37.46
2022-08-19T18:42:42.280Z,37.58
2022-08-19T18:46:04.264Z,38.60
2022-08-19T18:49:11.923Z,39.44
2022-08-19T18:52:14.408Z,39.84
2022-08-19T18:55:18.193Z,40.67
2022-08-19T18:58:33.885Z,41.26
2022-08-19T19:01:39.615Z,40.70
2022-08-19T19:04:43.642Z,39.93
2022-08-19T19:07:46.495Z,40.58
2022-08-19T19:10:50.386Z,41.87
2022-08-19T19:13:54.200Z,42.32
2022-08-19T19:16:57.685Z,43.36
2022-08-19T19:20:00.627Z,44.91
2022-08-19T19:23:03.602Z,44.67
2022-08-19T19:26:10.569Z,45.29
2022-08-19T19:29:14.058Z,45.89
2022-08-19T19:32:26.331Z,46.03
2022-08-19T19:35:30.106Z,46.83
2022-08-19T19:38:33.470Z,46.85
2022-08-19T19:41:36.952Z,46.57
2022-08-19T19:44:41.504Z,46.85
2022-08-19T19:47:50.135Z,46.78
2022-08-19T19:50:54.073Z,47.40
2022-08-19T19:53:59.468Z,47.57
2022-08-19T19:57:02.433Z,49.70
2022-08-19T20:00:08.293Z,50.92
2022-08-19T20:03:11.357Z,52.56
2022-08-19T20:06:16.549Z,53.47
2022-08-19T20:09:19.999Z,55.26
2022-08-19T20:12:22.596Z,56.39
2022-08-19T20:15:25.598Z,56.71
2022-08-19T20:18:28.363Z,58.98
2022-08-19T20:21:32.458Z,60.26
2022-08-19T20:24:36.251Z,59.27
2022-08-19T20:27:40.259Z,59.01
2022-08-19T20:30:46.590Z,59.98
2022-08-19T20:33:50.991Z,59.83
2022-08-19T20:36:53.575Z,63.03
2022-08-19T20:39:56.458Z,65.98
2022-08-19T20:42:59.072Z,66.36
2022-08-19T20:46:04.890Z,66.94
2022-08-19T20:49:08.279Z,69.71
2022-08-19T20:52:11.148Z,70.86
2022-08-19T20:55:13.737Z,70.68
2022-08-19T20:58:18.903Z,71.84
2022-08-19T21:01:21.618Z,72.08
2022-08-19T21:04:24.663Z,73.12
2022-08-19T21:07:39.016Z,74.09
2022-08-19T21:10:42.542Z,73.78
2022-08-19T21:13:45.154Z,74.30
2022-08-19T21:16:49.312Z,74.86
2022-08-19T21:19:51.820Z,75.87
2022-08-19T21:22:54.615Z,75.92
2022-08-19T21:25:59.298Z,75.62
2022-08-19T21:29:02.152Z,79.43
2022-08-19T21:32:05.038Z,81.07
2022-08-19T21:35:08.167Z,80.86
2022-08-19T21:38:10.813Z,82.26
2022-08-19T21:41:13.650Z,82.15
2022-08-19T21:44:16.181Z,82.14
2022-08-19T21:47:19.095Z,81.36
2022-08-19T21:50:23.897Z,81.43
2022-08-19T21:53:31.545Z,81.84
2022-08-19T21:56:40.079Z,83.38
2022-08-19T21:59:44.133Z,82.37
2022-08-19T22:02:47.065Z,82.04
2022-08-19T22:05:50.856Z,82.25
2022-08-19T22:08:56.352Z,84.12
2022-08-19T22:11:59.194Z,83.98
2022-08-19T22:15:02.120Z,83.67
2022-08-19T22:18:06.081Z,83.89
2022-08-19T22:21:11.899Z,84.82
2022-08-19T22:24:15.075Z,84.21
2022-08-19T22:27:18.318Z,84.87
2022-08-19T22:30:23.004Z,85.05
2022-08-19T22:33:27.696Z,85.53
2022-08-19T22:36:32.227Z,84.65
2022-08-19T22:39:35.442Z,83.70
2022-08-19T22:42:38.566Z,85.88
2022-08-19T22:45:42.006Z,84.13
2022-08-19T22:48:45.881Z,82.78
2022-08-19T22:52:07.060Z,84.53
2022-08-19T22:55:10.271Z,84.18
2022-08-19T22:58:12.806Z,84.19
2022-08-19T23:01:29.859Z,84.45
2022-08-19T23:04:33.273Z,85.40
2022-08-19T23:07:36.917Z,84.84
2022-08-19T23:10:39.841Z,84.81
2022-08-19T23:13:42.743Z,85.09
2022-08-19T23:16:50.701Z,85.54
2022-08-19T23:19:54.589Z,86.80
2022-08-19T23:22:57.910Z,86.91
2022-08-19T23:26:00.735Z,86.99
2022-08-19T23:29:22.732Z,87.11
2022-08-19T23:32:25.609Z,87.80
2022-08-19T23:35:33.198Z,87.18
2022-08-19T23:38:36.109Z,88.31
2022-08-19T23:41:38.706Z,88.27
2022-08-19T23:44:51.592Z,87.40
2022-08-19T23:47:55.598Z,87.70
2022-08-19T23:50:59.958Z,88.39
2022-08-19T23:54:02.489Z,88.70
2022-08-19T23:57:13.290Z,88.52
